sensor_id;sensor_type;location;lat;lon;timestamp;P1;durP1;ratioP1;P2;durP2;ratioP2
23718;SDS011;43322;52.230;5.702;2023-06-04T00:02:04;1.58;;;1.48;;
23718;SDS011;43322;52.230;5.702;2023-06-04T00:04:30;1.30;;;1.20;;
23718;SDS011;43322;52.230;5.702;2023-06-04T00:06:57;2.33;;;1.27;;
23718;SDS011;43322;52.230;5.702;2023-06-04T00:09:24;2.20;;;1.15;;
23718;SDS011;43322;52.230;5.702;2023-06-04T00:11:50;1.20;;;1.10;;
23718;SDS011;43322;52.230;5.702;2023-06-04T00:14:17;1.38;;;1.27;;
23718;SDS011;43322;52.230;5.702;2023-06-04T00:16:46;1.27;;;1.20;;
23718;SDS011;43322;52.230;5.702;2023-06-04T00:19:12;1.00;;;1.00;;
23718;SDS011;43322;52.230;5.702;2023-06-04T00:21:39;1.55;;;1.45;;
23718;SDS011;43322;52.230;5.702;2023-06-04T00:24:06;1.30;;;1.20;;
23718;SDS011;43322;52.230;5.702;2023-06-04T00:26:33;1.58;;;1.42;;
23718;SDS011;43322;52.230;5.702;2023-06-04T00:29:00;1.33;;;1.20;;
23718;SDS011;43322;52.230;5.702;2023-06-04T00:31:27;1.90;;;1.30;;
23718;SDS011;43322;52.230;5.702;2023-06-04T00:33:55;3.30;;;1.73;;
23718;SDS011;43322;52.230;5.702;2023-06-04T00:36:22;2.30;;;1.30;;
23718;SDS011;43322;52.230;5.702;2023-06-04T00:38:48;1.83;;;1.30;;
23718;SDS011;43322;52.230;5.702;2023-06-04T00:41:15;2.75;;;1.25;;
23718;SDS011;43322;52.230;5.702;2023-06-04T00:43:42;1.52;;;1.17;;
23718;SDS011;43322;52.230;5.702;2023-06-04T00:46:10;3.05;;;1.35;;
23718;SDS011;43322;52.230;5.702;2023-06-04T00:48:42;1.42;;;1.35;;
23718;SDS011;43322;52.230;5.702;2023-06-04T00:51:11;1.85;;;1.45;;
23718;SDS011;43322;52.230;5.702;2023-06-04T00:53:37;1.65;;;1.23;;
23718;SDS011;43322;52.230;5.702;2023-06-04T00:56:05;4.10;;;1.35;;
23718;SDS011;43322;52.230;5.702;2023-06-04T00:58:33;1.40;;;1.30;;
23718;SDS011;43322;52.230;5.702;2023-06-04T01:01:04;1.55;;;1.45;;
23718;SDS011;43322;52.230;5.702;2023-06-04T01:03:36;1.27;;;1.27;;
23718;SDS011;43322;52.230;5.702;2023-06-04T01:06:08;1.73;;;1.63;;
23718;SDS011;43322;52.230;5.702;2023-06-04T01:08:46;1.45;;;1.40;;
23718;SDS011;43322;52.230;5.702;2023-06-04T01:11:15;1.83;;;1.25;;
23718;SDS011;43322;52.230;5.702;2023-06-04T01:13:41;1.48;;;1.40;;
23718;SDS011;43322;52.230;5.702;2023-06-04T01:16:08;1.60;;;1.33;;
23718;SDS011;43322;52.230;5.702;2023-06-04T01:18:37;1.35;;;1.27;;
23718;SDS011;43322;52.230;5.702;2023-06-04T01:21:06;1.15;;;1.10;;
23718;SDS011;43322;52.230;5.702;2023-06-04T01:23:37;3.25;;;1.50;;
23718;SDS011;43322;52.230;5.702;2023-06-04T01:26:11;1.50;;;1.40;;
23718;SDS011;43322;52.230;5.702;2023-06-04T01:28:39;2.65;;;1.48;;
23718;SDS011;43322;52.230;5.702;2023-06-04T01:31:07;1.58;;;1.48;;
23718;SDS011;43322;52.230;5.702;2023-06-04T01:33:34;2.75;;;1.52;;
23718;SDS011;43322;52.230;5.702;2023-06-04T01:36:01;2.90;;;1.40;;
23718;SDS011;43322;52.230;5.702;2023-06-04T01:38:28;1.50;;;1.30;;
23718;SDS011;43322;52.230;5.702;2023-06-04T01:40:56;6.65;;;1.60;;
23718;SDS011;43322;52.230;5.702;2023-06-04T01:43:26;1.63;;;1.52;;
23718;SDS011;43322;52.230;5.702;2023-06-04T01:45:53;1.67;;;1.30;;
23718;SDS011;43322;52.230;5.702;2023-06-04T01:48:21;1.38;;;1.27;;
23718;SDS011;43322;52.230;5.702;2023-06-04T01:50:48;1.48;;;1.38;;
23718;SDS011;43322;52.230;5.702;2023-06-04T01:53:15;1.38;;;1.30;;
23718;SDS011;43322;52.230;5.702;2023-06-04T01:55:42;1.70;;;1.60;;
23718;SDS011;43322;52.230;5.702;2023-06-04T01:58:11;1.70;;;1.60;;
23718;SDS011;43322;52.230;5.702;2023-06-04T02:00:37;1.73;;;1.63;;
23718;SDS011;43322;52.230;5.702;2023-06-04T02:03:04;3.55;;;1.77;;
23718;SDS011;43322;52.230;5.702;2023-06-04T02:05:31;1.63;;;1.52;;
23718;SDS011;43322;52.230;5.702;2023-06-04T02:07:58;2.50;;;1.40;;
23718;SDS011;43322;52.230;5.702;2023-06-04T02:10:27;1.58;;;1.48;;
23718;SDS011;43322;52.230;5.702;2023-06-04T02:12:54;1.75;;;1.65;;
23718;SDS011;43322;52.230;5.702;2023-06-04T02:15:24;2.13;;;1.63;;
23718;SDS011;43322;52.230;5.702;2023-06-04T02:17:53;3.58;;;1.60;;
23718;SDS011;43322;52.230;5.702;2023-06-04T02:20:23;1.70;;;1.60;;
23718;SDS011;43322;52.230;5.702;2023-06-04T02:22:50;2.45;;;1.95;;
23718;SDS011;43322;52.230;5.702;2023-06-04T02:25:16;1.92;;;1.83;;
23718;SDS011;43322;52.230;5.702;2023-06-04T02:27:43;2.03;;;1.80;;
23718;SDS011;43322;52.230;5.702;2023-06-04T02:30:10;1.80;;;1.70;;
23718;SDS011;43322;52.230;5.702;2023-06-04T02:32:38;1.92;;;1.83;;
23718;SDS011;43322;52.230;5.702;2023-06-04T02:35:05;2.35;;;1.90;;
23718;SDS011;43322;52.230;5.702;2023-06-04T02:37:33;2.97;;;1.88;;
23718;SDS011;43322;52.230;5.702;2023-06-04T02:39:59;2.38;;;2.00;;
23718;SDS011;43322;52.230;5.702;2023-06-04T02:42:26;2.38;;;1.77;;
23718;SDS011;43322;52.230;5.702;2023-06-04T02:44:52;3.42;;;1.75;;
23718;SDS011;43322;52.230;5.702;2023-06-04T02:47:19;2.42;;;2.03;;
23718;SDS011;43322;52.230;5.702;2023-06-04T02:49:47;5.10;;;2.35;;
23718;SDS011;43322;52.230;5.702;2023-06-04T02:52:14;3.00;;;2.20;;
23718;SDS011;43322;52.230;5.702;2023-06-04T02:54:40;3.08;;;2.42;;
23718;SDS011;43322;52.230;5.702;2023-06-04T02:57:07;2.78;;;2.40;;
23718;SDS011;43322;52.230;5.702;2023-06-04T02:59:34;3.08;;;2.20;;
23718;SDS011;43322;52.230;5.702;2023-06-04T03:02:01;2.22;;;2.13;;
23718;SDS011;43322;52.230;5.702;2023-06-04T03:04:28;3.67;;;2.00;;
23718;SDS011;43322;52.230;5.702;2023-06-04T03:07:00;2.72;;;2.42;;
23718;SDS011;43322;52.230;5.702;2023-06-04T03:09:27;2.45;;;2.35;;
23718;SDS011;43322;52.230;5.702;2023-06-04T03:11:54;2.85;;;2.65;;
23718;SDS011;43322;52.230;5.702;2023-06-04T03:14:22;2.60;;;2.33;;
23718;SDS011;43322;52.230;5.702;2023-06-04T03:16:57;2.45;;;2.28;;
23718;SDS011;43322;52.230;5.702;2023-06-04T03:19:32;2.80;;;2.60;;
23718;SDS011;43322;52.230;5.702;2023-06-04T03:22:01;2.88;;;2.65;;
23718;SDS011;43322;52.230;5.702;2023-06-04T03:24:31;2.55;;;2.45;;
23718;SDS011;43322;52.230;5.702;2023-06-04T03:26:59;2.50;;;2.33;;
23718;SDS011;43322;52.230;5.702;2023-06-04T03:29:26;3.35;;;3.05;;
23718;SDS011;43322;52.230;5.702;2023-06-04T03:31:53;3.28;;;2.88;;
23718;SDS011;43322;52.230;5.702;2023-06-04T03:34:19;5.43;;;3.75;;
23718;SDS011;43322;52.230;5.702;2023-06-04T03:36:49;3.80;;;2.60;;
23718;SDS011;43322;52.230;5.702;2023-06-04T03:39:17;2.97;;;2.72;;
23718;SDS011;43322;52.230;5.702;2023-06-04T03:41:44;3.55;;;3.00;;
23718;SDS011;43322;52.230;5.702;2023-06-04T03:44:12;3.63;;;3.33;;
23718;SDS011;43322;52.230;5.702;2023-06-04T03:46:39;3.03;;;2.80;;
23718;SDS011;43322;52.230;5.702;2023-06-04T03:49:06;3.30;;;2.95;;
23718;SDS011;43322;52.230;5.702;2023-06-04T03:51:33;4.43;;;3.10;;
23718;SDS011;43322;52.230;5.702;2023-06-04T03:54:00;3.10;;;2.90;;
23718;SDS011;43322;52.230;5.702;2023-06-04T03:56:28;3.17;;;2.95;;
23718;SDS011;43322;52.230;5.702;2023-06-04T03:58:55;3.38;;;3.10;;
23718;SDS011;43322;52.230;5.702;2023-06-04T04:01:22;4.22;;;3.05;;
23718;SDS011;43322;52.230;5.702;2023-06-04T04:03:49;5.53;;;3.10;;
23718;SDS011;43322;52.230;5.702;2023-06-04T04:06:16;3.53;;;3.33;;
23718;SDS011;43322;52.230;5.702;2023-06-04T04:08:43;4.30;;;3.30;;
23718;SDS011;43322;52.230;5.702;2023-06-04T04:11:10;3.05;;;2.80;;
23718;SDS011;43322;52.230;5.702;2023-06-04T04:13:38;3.05;;;2.85;;
23718;SDS011;43322;52.230;5.702;2023-06-04T04:16:04;3.45;;;3.10;;
23718;SDS011;43322;52.230;5.702;2023-06-04T04:18:32;4.68;;;3.60;;
23718;SDS011;43322;52.230;5.702;2023-06-04T04:20:59;7.50;;;3.08;;
23718;SDS011;43322;52.230;5.702;2023-06-04T04:23:26;6.43;;;3.28;;
23718;SDS011;43322;52.230;5.702;2023-06-04T04:25:54;4.28;;;3.63;;
23718;SDS011;43322;52.230;5.702;2023-06-04T04:28:23;3.90;;;3.50;;
23718;SDS011;43322;52.230;5.702;2023-06-04T04:30:55;6.78;;;3.45;;
23718;SDS011;43322;52.230;5.702;2023-06-04T04:33:22;4.63;;;3.80;;
23718;SDS011;43322;52.230;5.702;2023-06-04T04:35:49;4.72;;;3.40;;
23718;SDS011;43322;52.230;5.702;2023-06-04T04:38:17;3.88;;;3.55;;
23718;SDS011;43322;52.230;5.702;2023-06-04T04:40:44;6.35;;;3.20;;
23718;SDS011;43322;52.230;5.702;2023-06-04T04:43:12;4.38;;;3.45;;
23718;SDS011;43322;52.230;5.702;2023-06-04T04:45:40;3.30;;;3.15;;
23718;SDS011;43322;52.230;5.702;2023-06-04T04:48:08;3.42;;;3.13;;
23718;SDS011;43322;52.230;5.702;2023-06-04T04:50:35;3.40;;;3.17;;
23718;SDS011;43322;52.230;5.702;2023-06-04T04:53:01;3.38;;;3.17;;
23718;SDS011;43322;52.230;5.702;2023-06-04T04:55:28;3.78;;;3.47;;
23718;SDS011;43322;52.230;5.702;2023-06-04T04:57:55;6.05;;;4.10;;
23718;SDS011;43322;52.230;5.702;2023-06-04T05:00:21;4.80;;;4.45;;
23718;SDS011;43322;52.230;5.702;2023-06-04T05:02:48;5.00;;;3.67;;
23718;SDS011;43322;52.230;5.702;2023-06-04T05:05:16;6.75;;;3.50;;
23718;SDS011;43322;52.230;5.702;2023-06-04T05:07:43;4.70;;;3.53;;
23718;SDS011;43322;52.230;5.702;2023-06-04T05:10:10;4.20;;;3.33;;
23718;SDS011;43322;52.230;5.702;2023-06-04T05:12:37;3.38;;;3.15;;
23718;SDS011;43322;52.230;5.702;2023-06-04T05:15:04;4.78;;;3.50;;
23718;SDS011;43322;52.230;5.702;2023-06-04T05:17:32;3.50;;;3.20;;
23718;SDS011;43322;52.230;5.702;2023-06-04T05:20:00;3.63;;;3.20;;
23718;SDS011;43322;52.230;5.702;2023-06-04T05:22:29;3.95;;;3.65;;
23718;SDS011;43322;52.230;5.702;2023-06-04T05:24:57;4.90;;;3.50;;
23718;SDS011;43322;52.230;5.702;2023-06-04T05:27:25;5.97;;;3.60;;
23718;SDS011;43322;52.230;5.702;2023-06-04T05:29:53;3.60;;;2.95;;
23718;SDS011;43322;52.230;5.702;2023-06-04T05:32:20;5.68;;;3.60;;
23718;SDS011;43322;52.230;5.702;2023-06-04T05:34:47;3.58;;;3.28;;
23718;SDS011;43322;52.230;5.702;2023-06-04T05:37:14;4.03;;;3.72;;
23718;SDS011;43322;52.230;5.702;2023-06-04T05:39:43;3.53;;;3.22;;
23718;SDS011;43322;52.230;5.702;2023-06-04T05:42:10;5.15;;;3.50;;
23718;SDS011;43322;52.230;5.702;2023-06-04T05:44:37;3.25;;;3.00;;
23718;SDS011;43322;52.230;5.702;2023-06-04T05:47:04;4.47;;;2.97;;
23718;SDS011;43322;52.230;5.702;2023-06-04T05:49:31;5.47;;;3.67;;
23718;SDS011;43322;52.230;5.702;2023-06-04T05:52:00;5.30;;;3.60;;
23718;SDS011;43322;52.230;5.702;2023-06-04T05:54:28;4.20;;;3.00;;
23718;SDS011;43322;52.230;5.702;2023-06-04T05:56:57;5.85;;;3.45;;
23718;SDS011;43322;52.230;5.702;2023-06-04T05:59:23;4.20;;;3.17;;
23718;SDS011;43322;52.230;5.702;2023-06-04T06:01:50;6.10;;;2.88;;
23718;SDS011;43322;52.230;5.702;2023-06-04T06:04:17;6.22;;;3.40;;
23718;SDS011;43322;52.230;5.702;2023-06-04T06:06:43;4.70;;;3.00;;
23718;SDS011;43322;52.230;5.702;2023-06-04T06:09:13;3.97;;;3.00;;
23718;SDS011;43322;52.230;5.702;2023-06-04T06:11:40;4.50;;;2.78;;
23718;SDS011;43322;52.230;5.702;2023-06-04T06:14:08;5.75;;;3.00;;
23718;SDS011;43322;52.230;5.702;2023-06-04T06:16:35;3.30;;;3.00;;
23718;SDS011;43322;52.230;5.702;2023-06-04T06:19:02;4.30;;;2.70;;
23718;SDS011;43322;52.230;5.702;2023-06-04T06:21:30;3.95;;;2.85;;
23718;SDS011;43322;52.230;5.702;2023-06-04T06:23:56;3.47;;;2.70;;
23718;SDS011;43322;52.230;5.702;2023-06-04T06:26:23;4.57;;;2.50;;
23718;SDS011;43322;52.230;5.702;2023-06-04T06:28:50;4.50;;;2.33;;
23718;SDS011;43322;52.230;5.702;2023-06-04T06:31:18;2.83;;;2.45;;
23718;SDS011;43322;52.230;5.702;2023-06-04T06:33:45;5.30;;;2.75;;
23718;SDS011;43322;52.230;5.702;2023-06-04T06:36:11;3.88;;;2.65;;
23718;SDS011;43322;52.230;5.702;2023-06-04T06:38:38;4.38;;;2.30;;
23718;SDS011;43322;52.230;5.702;2023-06-04T06:41:06;3.13;;;2.10;;
23718;SDS011;43322;52.230;5.702;2023-06-04T06:43:33;5.32;;;2.60;;
23718;SDS011;43322;52.230;5.702;2023-06-04T06:45:59;5.00;;;2.20;;
23718;SDS011;43322;52.230;5.702;2023-06-04T06:48:27;2.97;;;2.28;;
23718;SDS011;43322;52.230;5.702;2023-06-04T06:50:55;4.80;;;2.30;;
23718;SDS011;43322;52.230;5.702;2023-06-04T06:53:22;4.45;;;1.92;;
23718;SDS011;43322;52.230;5.702;2023-06-04T06:55:48;4.00;;;2.42;;
23718;SDS011;43322;52.230;5.702;2023-06-04T06:58:15;2.83;;;1.80;;
23718;SDS011;43322;52.230;5.702;2023-06-04T07:00:42;2.38;;;2.17;;
23718;SDS011;43322;52.230;5.702;2023-06-04T07:03:08;3.13;;;2.17;;
23718;SDS011;43322;52.230;5.702;2023-06-04T07:05:36;4.13;;;1.77;;
23718;SDS011;43322;52.230;5.702;2023-06-04T07:08:03;2.17;;;1.70;;
23718;SDS011;43322;52.230;5.702;2023-06-04T07:10:30;5.38;;;1.92;;
23718;SDS011;43322;52.230;5.702;2023-06-04T07:12:57;6.50;;;1.80;;
23718;SDS011;43322;52.230;5.702;2023-06-04T07:15:23;3.03;;;1.70;;
23718;SDS011;43322;52.230;5.702;2023-06-04T07:17:50;3.38;;;1.80;;
23718;SDS011;43322;52.230;5.702;2023-06-04T07:20:17;4.50;;;1.92;;
23718;SDS011;43322;52.230;5.702;2023-06-04T07:22:45;1.52;;;1.35;;
23718;SDS011;43322;52.230;5.702;2023-06-04T07:25:12;4.10;;;1.55;;
23718;SDS011;43322;52.230;5.702;2023-06-04T07:27:38;3.90;;;1.40;;
23718;SDS011;43322;52.230;5.702;2023-06-04T07:30:06;1.50;;;1.40;;
23718;SDS011;43322;52.230;5.702;2023-06-04T07:32:33;2.92;;;1.25;;
23718;SDS011;43322;52.230;5.702;2023-06-04T07:35:01;1.52;;;1.40;;
23718;SDS011;43322;52.230;5.702;2023-06-04T07:37:27;2.58;;;1.52;;
23718;SDS011;43322;52.230;5.702;2023-06-04T07:39:56;1.75;;;0.90;;
23718;SDS011;43322;52.230;5.702;2023-06-04T07:42:23;2.22;;;1.30;;
23718;SDS011;43322;52.230;5.702;2023-06-04T07:44:49;3.58;;;1.25;;
23718;SDS011;43322;52.230;5.702;2023-06-04T07:47:16;2.40;;;1.50;;
23718;SDS011;43322;52.230;5.702;2023-06-04T07:49:42;2.35;;;1.15;;
23718;SDS011;43322;52.230;5.702;2023-06-04T07:52:09;1.13;;;0.93;;
23718;SDS011;43322;52.230;5.702;2023-06-04T07:54:36;1.20;;;1.10;;
23718;SDS011;43322;52.230;5.702;2023-06-04T07:57:07;1.65;;;1.00;;
23718;SDS011;43322;52.230;5.702;2023-06-04T07:59:35;1.00;;;0.90;;
23718;SDS011;43322;52.230;5.702;2023-06-04T08:02:01;1.17;;;1.10;;
23718;SDS011;43322;52.230;5.702;2023-06-04T08:04:28;2.63;;;1.30;;
23718;SDS011;43322;52.230;5.702;2023-06-04T08:06:55;1.63;;;1.00;;
23718;SDS011;43322;52.230;5.702;2023-06-04T08:09:22;2.33;;;1.15;;
23718;SDS011;43322;52.230;5.702;2023-06-04T08:11:49;1.13;;;1.00;;
23718;SDS011;43322;52.230;5.702;2023-06-04T08:14:17;1.25;;;1.08;;
23718;SDS011;43322;52.230;5.702;2023-06-04T08:16:46;4.45;;;1.10;;
23718;SDS011;43322;52.230;5.702;2023-06-04T08:19:13;1.05;;;0.95;;
23718;SDS011;43322;52.230;5.702;2023-06-04T08:21:40;1.88;;;1.00;;
23718;SDS011;43322;52.230;5.702;2023-06-04T08:24:08;2.33;;;1.05;;
23718;SDS011;43322;52.230;5.702;2023-06-04T08:26:35;0.73;;;0.73;;
23718;SDS011;43322;52.230;5.702;2023-06-04T08:29:02;1.60;;;1.10;;
23718;SDS011;43322;52.230;5.702;2023-06-04T08:31:30;0.80;;;0.80;;
23718;SDS011;43322;52.230;5.702;2023-06-04T08:33:57;1.38;;;1.00;;
23718;SDS011;43322;52.230;5.702;2023-06-04T08:36:24;1.77;;;0.85;;
23718;SDS011;43322;52.230;5.702;2023-06-04T08:38:51;1.17;;;1.08;;
23718;SDS011;43322;52.230;5.702;2023-06-04T08:41:20;2.45;;;0.98;;
23718;SDS011;43322;52.230;5.702;2023-06-04T08:43:51;1.63;;;0.90;;
23718;SDS011;43322;52.230;5.702;2023-06-04T08:46:21;1.60;;;1.30;;
23718;SDS011;43322;52.230;5.702;2023-06-04T08:48:50;1.75;;;0.95;;
23718;SDS011;43322;52.230;5.702;2023-06-04T08:51:17;1.80;;;1.20;;
23718;SDS011;43322;52.230;5.702;2023-06-04T08:53:44;0.95;;;0.90;;
23718;SDS011;43322;52.230;5.702;2023-06-04T08:56:15;1.33;;;1.05;;
23718;SDS011;43322;52.230;5.702;2023-06-04T08:58:42;0.70;;;0.70;;
23718;SDS011;43322;52.230;5.702;2023-06-04T09:01:10;1.05;;;0.90;;
23718;SDS011;43322;52.230;5.702;2023-06-04T09:03:37;1.08;;;0.80;;
23718;SDS011;43322;52.230;5.702;2023-06-04T09:06:05;0.80;;;0.80;;
23718;SDS011;43322;52.230;5.702;2023-06-04T09:08:34;1.65;;;1.00;;
23718;SDS011;43322;52.230;5.702;2023-06-04T09:11:03;0.77;;;0.70;;
23718;SDS011;43322;52.230;5.702;2023-06-04T09:13:34;0.77;;;0.77;;
23718;SDS011;43322;52.230;5.702;2023-06-04T09:16:02;1.45;;;1.00;;
23718;SDS011;43322;52.230;5.702;2023-06-04T09:18:29;0.80;;;0.80;;
23718;SDS011;43322;52.230;5.702;2023-06-04T09:21:00;1.95;;;0.50;;
23718;SDS011;43322;52.230;5.702;2023-06-04T09:23:29;1.15;;;0.68;;
23718;SDS011;43322;52.230;5.702;2023-06-04T09:25:57;1.33;;;0.70;;
23718;SDS011;43322;52.230;5.702;2023-06-04T09:28:32;2.10;;;0.93;;
23718;SDS011;43322;52.230;5.702;2023-06-04T09:30:59;2.92;;;1.05;;
23718;SDS011;43322;52.230;5.702;2023-06-04T09:33:27;1.10;;;1.00;;
23718;SDS011;43322;52.230;5.702;2023-06-04T09:35:54;0.98;;;0.82;;
23718;SDS011;43322;52.230;5.702;2023-06-04T09:38:21;1.20;;;1.10;;
23718;SDS011;43322;52.230;5.702;2023-06-04T09:40:49;0.80;;;0.73;;
23718;SDS011;43322;52.230;5.702;2023-06-04T09:43:22;1.48;;;0.80;;
23718;SDS011;43322;52.230;5.702;2023-06-04T09:45:49;1.75;;;0.80;;
23718;SDS011;43322;52.230;5.702;2023-06-04T09:48:20;0.80;;;0.80;;
23718;SDS011;43322;52.230;5.702;2023-06-04T09:50:47;0.80;;;0.80;;
23718;SDS011;43322;52.230;5.702;2023-06-04T09:53:14;0.90;;;0.80;;
23718;SDS011;43322;52.230;5.702;2023-06-04T09:55:41;1.35;;;0.82;;
23718;SDS011;43322;52.230;5.702;2023-06-04T09:58:10;1.20;;;0.73;;
23718;SDS011;43322;52.230;5.702;2023-06-04T10:00:38;1.17;;;0.80;;
23718;SDS011;43322;52.230;5.702;2023-06-04T10:03:06;2.65;;;0.82;;
23718;SDS011;43322;52.230;5.702;2023-06-04T10:05:40;1.85;;;0.70;;
23718;SDS011;43322;52.230;5.702;2023-06-04T10:08:07;0.77;;;0.77;;
23718;SDS011;43322;52.230;5.702;2023-06-04T10:10:37;0.70;;;0.70;;
23718;SDS011;43322;52.230;5.702;2023-06-04T10:13:05;1.77;;;0.90;;
23718;SDS011;43322;52.230;5.702;2023-06-04T10:15:36;0.98;;;0.85;;
23718;SDS011;43322;52.230;5.702;2023-06-04T10:18:04;2.72;;;1.05;;
23718;SDS011;43322;52.230;5.702;2023-06-04T10:20:31;0.68;;;0.65;;
23718;SDS011;43322;52.230;5.702;2023-06-04T10:22:59;1.65;;;0.93;;
23718;SDS011;43322;52.230;5.702;2023-06-04T10:25:26;1.10;;;0.90;;
23718;SDS011;43322;52.230;5.702;2023-06-04T10:27:55;1.20;;;0.90;;
23718;SDS011;43322;52.230;5.702;2023-06-04T10:30:23;2.08;;;1.30;;
23718;SDS011;43322;52.230;5.702;2023-06-04T10:32:51;3.13;;;0.90;;
23718;SDS011;43322;52.230;5.702;2023-06-04T10:35:28;1.88;;;1.05;;
23718;SDS011;43322;52.230;5.702;2023-06-04T10:38:03;2.17;;;1.20;;
23718;SDS011;43322;52.230;5.702;2023-06-04T10:40:31;1.80;;;1.20;;
23718;SDS011;43322;52.230;5.702;2023-06-04T10:43:04;1.02;;;0.90;;
23718;SDS011;43322;52.230;5.702;2023-06-04T10:45:31;1.52;;;1.35;;
23718;SDS011;43322;52.230;5.702;2023-06-04T10:48:00;2.03;;;1.20;;
23718;SDS011;43322;52.230;5.702;2023-06-04T10:50:27;1.38;;;0.90;;
23718;SDS011;43322;52.230;5.702;2023-06-04T10:52:55;1.02;;;0.90;;
23718;SDS011;43322;52.230;5.702;2023-06-04T10:55:23;2.72;;;0.80;;
23718;SDS011;43322;52.230;5.702;2023-06-04T10:57:51;1.25;;;1.10;;
23718;SDS011;43322;52.230;5.702;2023-06-04T11:00:18;1.67;;;1.17;;
23718;SDS011;43322;52.230;5.702;2023-06-04T11:02:52;2.05;;;0.80;;
23718;SDS011;43322;52.230;5.702;2023-06-04T11:05:21;1.48;;;1.20;;
23718;SDS011;43322;52.230;5.702;2023-06-04T11:07:59;1.00;;;1.00;;
23718;SDS011;43322;52.230;5.702;2023-06-04T11:10:30;1.02;;;1.00;;
23718;SDS011;43322;52.230;5.702;2023-06-04T11:12:58;0.90;;;0.90;;
23718;SDS011;43322;52.230;5.702;2023-06-04T11:15:25;1.35;;;1.10;;
23718;SDS011;43322;52.230;5.702;2023-06-04T11:17:52;0.95;;;0.85;;
23718;SDS011;43322;52.230;5.702;2023-06-04T11:20:22;0.80;;;0.80;;
23718;SDS011;43322;52.230;5.702;2023-06-04T11:22:52;1.80;;;0.80;;
23718;SDS011;43322;52.230;5.702;2023-06-04T11:25:20;0.77;;;0.77;;
23718;SDS011;43322;52.230;5.702;2023-06-04T11:27:47;0.80;;;0.80;;
23718;SDS011;43322;52.230;5.702;2023-06-04T11:30:15;1.30;;;1.10;;
23718;SDS011;43322;52.230;5.702;2023-06-04T11:32:41;1.15;;;0.80;;
23718;SDS011;43322;52.230;5.702;2023-06-04T11:35:08;1.50;;;1.10;;
23718;SDS011;43322;52.230;5.702;2023-06-04T11:37:38;2.72;;;1.23;;
23718;SDS011;43322;52.230;5.702;2023-06-04T11:40:15;0.70;;;0.70;;
23718;SDS011;43322;52.230;5.702;2023-06-04T11:42:43;0.80;;;0.80;;
23718;SDS011;43322;52.230;5.702;2023-06-04T11:45:11;1.08;;;0.98;;
23718;SDS011;43322;52.230;5.702;2023-06-04T11:47:39;1.08;;;0.98;;
23718;SDS011;43322;52.230;5.702;2023-06-04T11:50:06;0.90;;;0.90;;
23718;SDS011;43322;52.230;5.702;2023-06-04T11:52:33;0.93;;;0.93;;
23718;SDS011;43322;52.230;5.702;2023-06-04T11:55:02;1.23;;;1.17;;
23718;SDS011;43322;52.230;5.702;2023-06-04T11:57:29;1.23;;;0.82;;
23718;SDS011;43322;52.230;5.702;2023-06-04T11:59:56;3.85;;;1.00;;
23718;SDS011;43322;52.230;5.702;2023-06-04T12:02:23;0.98;;;0.98;;
23718;SDS011;43322;52.230;5.702;2023-06-04T12:04:49;1.70;;;0.95;;
23718;SDS011;43322;52.230;5.702;2023-06-04T12:07:19;1.50;;;1.00;;
23718;SDS011;43322;52.230;5.702;2023-06-04T12:09:49;1.30;;;1.10;;
23718;SDS011;43322;52.230;5.702;2023-06-04T12:12:21;0.88;;;0.77;;
23718;SDS011;43322;52.230;5.702;2023-06-04T12:14:55;1.08;;;1.08;;
23718;SDS011;43322;52.230;5.702;2023-06-04T12:17:23;1.98;;;1.17;;
23718;SDS011;43322;52.230;5.702;2023-06-04T12:19:50;1.10;;;1.00;;
23718;SDS011;43322;52.230;5.702;2023-06-04T12:22:17;1.15;;;1.05;;
23718;SDS011;43322;52.230;5.702;2023-06-04T12:24:48;1.35;;;1.00;;
23718;SDS011;43322;52.230;5.702;2023-06-04T12:27:19;1.35;;;1.25;;
23718;SDS011;43322;52.230;5.702;2023-06-04T12:29:54;1.48;;;1.05;;
23718;SDS011;43322;52.230;5.702;2023-06-04T12:32:21;1.10;;;1.00;;
23718;SDS011;43322;52.230;5.702;2023-06-04T12:34:48;0.88;;;0.85;;
23718;SDS011;43322;52.230;5.702;2023-06-04T12:37:14;2.30;;;1.05;;
23718;SDS011;43322;52.230;5.702;2023-06-04T12:39:41;1.23;;;1.13;;
23718;SDS011;43322;52.230;5.702;2023-06-04T12:42:08;1.40;;;1.25;;
23718;SDS011;43322;52.230;5.702;2023-06-04T12:44:37;2.20;;;1.10;;
23718;SDS011;43322;52.230;5.702;2023-06-04T12:47:05;1.50;;;1.10;;
23718;SDS011;43322;52.230;5.702;2023-06-04T12:49:32;1.02;;;1.00;;
23718;SDS011;43322;52.230;5.702;2023-06-04T12:51:59;2.17;;;1.15;;
23718;SDS011;43322;52.230;5.702;2023-06-04T12:54:26;1.00;;;1.00;;
23718;SDS011;43322;52.230;5.702;2023-06-04T12:56:53;2.10;;;1.20;;
23718;SDS011;43322;52.230;5.702;2023-06-04T12:59:21;2.08;;;1.25;;
23718;SDS011;43322;52.230;5.702;2023-06-04T13:01:49;1.45;;;1.30;;
23718;SDS011;43322;52.230;5.702;2023-06-04T13:04:16;1.17;;;1.00;;
23718;SDS011;43322;52.230;5.702;2023-06-04T13:06:42;1.30;;;1.20;;
23718;SDS011;43322;52.230;5.702;2023-06-04T13:09:10;1.85;;;0.90;;
23718;SDS011;43322;52.230;5.702;2023-06-04T13:11:38;1.30;;;1.20;;
23718;SDS011;43322;52.230;5.702;2023-06-04T13:14:05;1.35;;;1.25;;
23718;SDS011;43322;52.230;5.702;2023-06-04T13:16:32;3.10;;;1.10;;
23718;SDS011;43322;52.230;5.702;2023-06-04T13:19:00;2.33;;;1.20;;
23718;SDS011;43322;52.230;5.702;2023-06-04T13:21:27;2.88;;;1.35;;
23718;SDS011;43322;52.230;5.702;2023-06-04T13:23:54;2.38;;;1.20;;
23718;SDS011;43322;52.230;5.702;2023-06-04T13:26:22;1.77;;;1.30;;
23718;SDS011;43322;52.230;5.702;2023-06-04T13:28:49;1.27;;;1.10;;
23718;SDS011;43322;52.230;5.702;2023-06-04T13:31:15;2.85;;;1.27;;
23718;SDS011;43322;52.230;5.702;2023-06-04T13:33:42;1.67;;;1.40;;
23718;SDS011;43322;52.230;5.702;2023-06-04T13:36:10;3.08;;;1.25;;
23718;SDS011;43322;52.230;5.702;2023-06-04T13:38:37;1.45;;;1.17;;
23718;SDS011;43322;52.230;5.702;2023-06-04T13:41:06;1.30;;;1.20;;
23718;SDS011;43322;52.230;5.702;2023-06-04T13:43:32;1.20;;;1.05;;
23718;SDS011;43322;52.230;5.702;2023-06-04T13:45:59;3.90;;;1.40;;
23718;SDS011;43322;52.230;5.702;2023-06-04T13:48:26;1.20;;;1.10;;
23718;SDS011;43322;52.230;5.702;2023-06-04T13:50:53;1.23;;;1.13;;
23718;SDS011;43322;52.230;5.702;2023-06-04T13:53:21;3.28;;;1.40;;
23718;SDS011;43322;52.230;5.702;2023-06-04T13:55:48;1.15;;;1.10;;
23718;SDS011;43322;52.230;5.702;2023-06-04T13:58:15;2.65;;;1.35;;
23718;SDS011;43322;52.230;5.702;2023-06-04T14:00:42;1.20;;;1.10;;
23718;SDS011;43322;52.230;5.702;2023-06-04T14:03:09;2.65;;;1.20;;
23718;SDS011;43322;52.230;5.702;2023-06-04T14:05:35;1.15;;;1.15;;
23718;SDS011;43322;52.230;5.702;2023-06-04T14:08:02;2.35;;;1.10;;
23718;SDS011;43322;52.230;5.702;2023-06-04T14:10:30;3.20;;;1.38;;
23718;SDS011;43322;52.230;5.702;2023-06-04T14:12:57;1.85;;;1.30;;
23718;SDS011;43322;52.230;5.702;2023-06-04T14:15:24;1.52;;;1.27;;
23718;SDS011;43322;52.230;5.702;2023-06-04T14:17:50;2.35;;;1.30;;
23718;SDS011;43322;52.230;5.702;2023-06-04T14:20:17;2.17;;;1.10;;
23718;SDS011;43322;52.230;5.702;2023-06-04T14:22:44;4.45;;;1.08;;
23718;SDS011;43322;52.230;5.702;2023-06-04T14:25:10;1.70;;;1.17;;
23718;SDS011;43322;52.230;5.702;2023-06-04T14:27:38;2.17;;;1.30;;
23718;SDS011;43322;52.230;5.702;2023-06-04T14:30:06;1.67;;;1.58;;
23718;SDS011;43322;52.230;5.702;2023-06-04T14:32:33;2.72;;;1.20;;
23718;SDS011;43322;52.230;5.702;2023-06-04T14:35:03;1.38;;;1.30;;
23718;SDS011;43322;52.230;5.702;2023-06-04T14:37:31;1.58;;;1.30;;
23718;SDS011;43322;52.230;5.702;2023-06-04T14:39:57;2.15;;;1.10;;
23718;SDS011;43322;52.230;5.702;2023-06-04T14:42:24;2.33;;;1.60;;
23718;SDS011;43322;52.230;5.702;2023-06-04T14:44:52;1.65;;;1.30;;
23718;SDS011;43322;52.230;5.702;2023-06-04T14:47:19;1.75;;;1.40;;
23718;SDS011;43322;52.230;5.702;2023-06-04T14:49:47;2.17;;;1.60;;
23718;SDS011;43322;52.230;5.702;2023-06-04T14:52:13;1.40;;;1.25;;